sensor_id;sensor_type;location;lat;lon;timestamp;temperature;humidity
8103;DHT22;4094;49.948;11.574;2023-10-09T00:00:16;16.20;73.80
8103;DHT22;4094;49.948;11.574;2023-10-09T00:03:05;16.20;73.70
8103;DHT22;4094;49.948;11.574;2023-10-09T00:05:35;16.20;73.70
8103;DHT22;4094;49.948;11.574;2023-10-09T00:08:15;16.20;73.70
8103;DHT22;4094;49.948;11.574;2023-10-09T00:10:51;16.20;73.70
8103;DHT22;4094;49.948;11.574;2023-10-09T00:13:22;16.20;73.70
8103;DHT22;4094;49.948;11.574;2023-10-09T00:15:57;16.20;73.60
8103;DHT22;4094;49.948;11.574;2023-10-09T00:18:30;16.20;73.50
8103;DHT22;4094;49.948;11.574;2023-10-09T00:21:02;16.20;73.50
8103;DHT22;4094;49.948;11.574;2023-10-09T00:23:41;16.20;73.60
8103;DHT22;4094;49.948;11.574;2023-10-09T00:26:10;16.20;73.50
8103;DHT22;4094;49.948;11.574;2023-10-09T00:28:50;16.10;73.50
8103;DHT22;4094;49.948;11.574;2023-10-09T00:31:20;16.10;73.60
8103;DHT22;4094;49.948;11.574;2023-10-09T00:34:02;16.10;73.60
8103;DHT22;4094;49.948;11.574;2023-10-09T00:36:33;16.10;73.70
8103;DHT22;4094;49.948;11.574;2023-10-09T00:39:17;16.10;73.90
8103;DHT22;4094;49.948;11.574;2023-10-09T00:42:01;16.10;74.10
8103;DHT22;4094;49.948;11.574;2023-10-09T00:44:34;16.10;75.00
8103;DHT22;4094;49.948;11.574;2023-10-09T00:47:08;16.10;74.10
8103;DHT22;4094;49.948;11.574;2023-10-09T00:49:52;16.10;74.00
8103;DHT22;4094;49.948;11.574;2023-10-09T00:52:31;16.10;74.00
8103;DHT22;4094;49.948;11.574;2023-10-09T00:55:09;16.10;74.10
8103;DHT22;4094;49.948;11.574;2023-10-09T00:57:45;16.10;74.00
8103;DHT22;4094;49.948;11.574;2023-10-09T01:00:25;16.10;74.00
8103;DHT22;4094;49.948;11.574;2023-10-09T01:03:15;16.10;74.00
8103;DHT22;4094;49.948;11.574;2023-10-09T01:05:51;16.10;74.00
8103;DHT22;4094;49.948;11.574;2023-10-09T01:08:27;16.10;74.00
8103;DHT22;4094;49.948;11.574;2023-10-09T01:11:12;16.10;73.90
8103;DHT22;4094;49.948;11.574;2023-10-09T01:13:47;16.10;73.90
8103;DHT22;4094;49.948;11.574;2023-10-09T01:16:23;16.10;73.90
8103;DHT22;4094;49.948;11.574;2023-10-09T01:18:54;16.10;73.90
8103;DHT22;4094;49.948;11.574;2023-10-09T01:21:27;16.10;73.90
8103;DHT22;4094;49.948;11.574;2023-10-09T01:24:02;16.10;74.00
8103;DHT22;4094;49.948;11.574;2023-10-09T01:26:38;16.10;74.00
8103;DHT22;4094;49.948;11.574;2023-10-09T01:29:15;16.10;74.00
8103;DHT22;4094;49.948;11.574;2023-10-09T01:31:47;16.10;74.00
8103;DHT22;4094;49.948;11.574;2023-10-09T01:34:24;16.10;74.00
8103;DHT22;4094;49.948;11.574;2023-10-09T01:37:07;16.10;74.00
8103;DHT22;4094;49.948;11.574;2023-10-09T01:39:49;16.10;74.00
8103;DHT22;4094;49.948;11.574;2023-10-09T01:42:20;16.10;74.00
8103;DHT22;4094;49.948;11.574;2023-10-09T01:45:00;16.10;74.00
8103;DHT22;4094;49.948;11.574;2023-10-09T01:47:39;16.10;74.00
8103;DHT22;4094;49.948;11.574;2023-10-09T01:50:08;16.10;74.10
8103;DHT22;4094;49.948;11.574;2023-10-09T01:52:47;16.00;74.10
8103;DHT22;4094;49.948;11.574;2023-10-09T01:55:19;16.00;74.10
8103;DHT22;4094;49.948;11.574;2023-10-09T01:58:01;16.00;74.20
8103;DHT22;4094;49.948;11.574;2023-10-09T02:00:34;16.00;74.30
8103;DHT22;4094;49.948;11.574;2023-10-09T02:03:10;16.00;74.40
8103;DHT22;4094;49.948;11.574;2023-10-09T02:05:52;16.00;74.50
8103;DHT22;4094;49.948;11.574;2023-10-09T02:08:27;16.00;74.40
8103;DHT22;4094;49.948;11.574;2023-10-09T02:11:05;16.00;74.60
8103;DHT22;4094;49.948;11.574;2023-10-09T02:13:43;16.00;74.50
8103;DHT22;4094;49.948;11.574;2023-10-09T02:16:15;16.00;74.40
8103;DHT22;4094;49.948;11.574;2023-10-09T02:18:56;16.00;74.40
8103;DHT22;4094;49.948;11.574;2023-10-09T02:21:26;16.10;74.50
8103;DHT22;4094;49.948;11.574;2023-10-09T02:23:58;16.10;74.50
8103;DHT22;4094;49.948;11.574;2023-10-09T02:26:33;16.10;74.40
8103;DHT22;4094;49.948;11.574;2023-10-09T02:29:29;16.10;74.40
8103;DHT22;4094;49.948;11.574;2023-10-09T02:32:03;16.00;74.30
8103;DHT22;4094;49.948;11.574;2023-10-09T02:34:41;16.00;74.30
8103;DHT22;4094;49.948;11.574;2023-10-09T02:37:14;16.00;74.40
8103;DHT22;4094;49.948;11.574;2023-10-09T02:39:51;16.00;74.40
8103;DHT22;4094;49.948;11.574;2023-10-09T02:42:22;16.00;74.50
8103;DHT22;4094;49.948;11.574;2023-10-09T02:44:57;15.90;75.20
8103;DHT22;4094;49.948;11.574;2023-10-09T02:47:27;15.90;74.40
8103;DHT22;4094;49.948;11.574;2023-10-09T02:49:59;15.90;74.40
8103;DHT22;4094;49.948;11.574;2023-10-09T02:52:34;15.90;74.40
8103;DHT22;4094;49.948;11.574;2023-10-09T02:55:09;15.90;74.40
8103;DHT22;4094;49.948;11.574;2023-10-09T02:57:52;15.90;74.40
8103;DHT22;4094;49.948;11.574;2023-10-09T03:00:33;15.80;74.20
8103;DHT22;4094;49.948;11.574;2023-10-09T03:03:04;15.80;74.20
8103;DHT22;4094;49.948;11.574;2023-10-09T03:05:35;15.80;74.20
8103;DHT22;4094;49.948;11.574;2023-10-09T03:08:10;15.80;74.20
8103;DHT22;4094;49.948;11.574;2023-10-09T03:10:40;15.70;74.20
8103;DHT22;4094;49.948;11.574;2023-10-09T03:13:11;15.70;74.20
8103;DHT22;4094;49.948;11.574;2023-10-09T03:15:42;15.70;74.40
8103;DHT22;4094;49.948;11.574;2023-10-09T03:18:11;15.70;74.50
8103;DHT22;4094;49.948;11.574;2023-10-09T03:20:42;15.70;74.60
8103;DHT22;4094;49.948;11.574;2023-10-09T03:23:12;15.70;74.60
8103;DHT22;4094;49.948;11.574;2023-10-09T03:25:42;15.60;74.60
8103;DHT22;4094;49.948;11.574;2023-10-09T03:28:14;15.60;74.70
8103;DHT22;4094;49.948;11.574;2023-10-09T03:30:43;15.60;74.70
8103;DHT22;4094;49.948;11.574;2023-10-09T03:33:15;15.60;74.70
8103;DHT22;4094;49.948;11.574;2023-10-09T03:35:44;15.60;74.70
8103;DHT22;4094;49.948;11.574;2023-10-09T03:38:13;15.60;74.70
8103;DHT22;4094;49.948;11.574;2023-10-09T03:40:45;15.60;74.70
8103;DHT22;4094;49.948;11.574;2023-10-09T03:43:17;15.50;74.60
8103;DHT22;4094;49.948;11.574;2023-10-09T03:45:47;15.50;74.60
8103;DHT22;4094;49.948;11.574;2023-10-09T03:48:20;15.50;74.70
8103;DHT22;4094;49.948;11.574;2023-10-09T03:50:54;15.50;74.70
8103;DHT22;4094;49.948;11.574;2023-10-09T03:53:36;15.50;74.70
8103;DHT22;4094;49.948;11.574;2023-10-09T03:56:07;15.50;74.90
8103;DHT22;4094;49.948;11.574;2023-10-09T03:58:43;15.50;74.90
8103;DHT22;4094;49.948;11.574;2023-10-09T04:01:13;15.50;75.00
8103;DHT22;4094;49.948;11.574;2023-10-09T04:03:51;15.50;75.00
8103;DHT22;4094;49.948;11.574;2023-10-09T04:06:23;15.50;75.10
8103;DHT22;4094;49.948;11.574;2023-10-09T04:08:56;15.50;75.10
8103;DHT22;4094;49.948;11.574;2023-10-09T04:11:27;15.50;75.20
8103;DHT22;4094;49.948;11.574;2023-10-09T04:13:57;15.50;75.30
8103;DHT22;4094;49.948;11.574;2023-10-09T04:16:27;15.50;75.20
8103;DHT22;4094;49.948;11.574;2023-10-09T04:19:03;15.50;75.20
8103;DHT22;4094;49.948;11.574;2023-10-09T04:21:39;15.50;75.20
8103;DHT22;4094;49.948;11.574;2023-10-09T04:24:09;15.50;75.20
8103;DHT22;4094;49.948;11.574;2023-10-09T04:26:51;15.50;75.20
8103;DHT22;4094;49.948;11.574;2023-10-09T04:29:27;15.50;75.20
8103;DHT22;4094;49.948;11.574;2023-10-09T04:32:05;15.50;75.10
8103;DHT22;4094;49.948;11.574;2023-10-09T04:34:40;15.50;75.20
8103;DHT22;4094;49.948;11.574;2023-10-09T04:37:16;15.50;75.20
8103;DHT22;4094;49.948;11.574;2023-10-09T04:39:56;15.50;75.10
8103;DHT22;4094;49.948;11.574;2023-10-09T04:42:39;15.50;75.00
8103;DHT22;4094;49.948;11.574;2023-10-09T04:45:16;15.50;75.00
8103;DHT22;4094;49.948;11.574;2023-10-09T04:48:09;15.50;75.00
8103;DHT22;4094;49.948;11.574;2023-10-09T04:50:37;15.40;74.90
8103;DHT22;4094;49.948;11.574;2023-10-09T04:53:26;15.40;75.00
8103;DHT22;4094;49.948;11.574;2023-10-09T04:55:56;15.40;75.00
8103;DHT22;4094;49.948;11.574;2023-10-09T04:58:32;15.40;75.10
8103;DHT22;4094;49.948;11.574;2023-10-09T05:01:08;15.40;75.20
8103;DHT22;4094;49.948;11.574;2023-10-09T05:04:04;15.30;75.20
8103;DHT22;4094;49.948;11.574;2023-10-09T05:06:47;15.30;75.20
8103;DHT22;4094;49.948;11.574;2023-10-09T05:09:23;15.30;75.20
8103;DHT22;4094;49.948;11.574;2023-10-09T05:11:53;15.30;75.20
8103;DHT22;4094;49.948;11.574;2023-10-09T05:14:28;15.20;75.20
8103;DHT22;4094;49.948;11.574;2023-10-09T05:17:08;15.20;75.30
8103;DHT22;4094;49.948;11.574;2023-10-09T05:19:44;15.20;75.30
8103;DHT22;4094;49.948;11.574;2023-10-09T05:22:44;15.20;75.30
8103;DHT22;4094;49.948;11.574;2023-10-09T05:25:25;15.20;75.30
8103;DHT22;4094;49.948;11.574;2023-10-09T05:28:12;15.20;75.30
8103;DHT22;4094;49.948;11.574;2023-10-09T05:30:59;15.20;75.30
8103;DHT22;4094;49.948;11.574;2023-10-09T05:33:38;15.20;75.30
8103;DHT22;4094;49.948;11.574;2023-10-09T05:36:07;15.10;75.20
8103;DHT22;4094;49.948;11.574;2023-10-09T05:38:54;15.10;75.30
8103;DHT22;4094;49.948;11.574;2023-10-09T05:41:45;15.10;75.40
8103;DHT22;4094;49.948;11.574;2023-10-09T05:44:15;15.10;75.50
8103;DHT22;4094;49.948;11.574;2023-10-09T05:46:59;15.10;75.70
8103;DHT22;4094;49.948;11.574;2023-10-09T05:49:46;15.10;75.70
8103;DHT22;4094;49.948;11.574;2023-10-09T05:52:23;15.10;75.70
8103;DHT22;4094;49.948;11.574;2023-10-09T05:55:09;15.10;75.70
8103;DHT22;4094;49.948;11.574;2023-10-09T05:58:08;15.10;75.70
8103;DHT22;4094;49.948;11.574;2023-10-09T06:00:55;15.10;75.60
8103;DHT22;4094;49.948;11.574;2023-10-09T06:03:43;15.10;75.60
8103;DHT22;4094;49.948;11.574;2023-10-09T06:06:23;15.10;75.50
8103;DHT22;4094;49.948;11.574;2023-10-09T06:09:02;15.20;75.70
8103;DHT22;4094;49.948;11.574;2023-10-09T06:11:59;15.20;75.70
8103;DHT22;4094;49.948;11.574;2023-10-09T06:14:57;15.20;75.60
8103;DHT22;4094;49.948;11.574;2023-10-09T06:17:46;15.20;75.60
8103;DHT22;4094;49.948;11.574;2023-10-09T06:20:18;15.20;75.60
8103;DHT22;4094;49.948;11.574;2023-10-09T06:23:07;15.20;75.60
8103;DHT22;4094;49.948;11.574;2023-10-09T06:25:44;15.20;75.60
8103;DHT22;4094;49.948;11.574;2023-10-09T06:28:19;15.30;75.70
8103;DHT22;4094;49.948;11.574;2023-10-09T06:31:01;15.30;75.70
8103;DHT22;4094;49.948;11.574;2023-10-09T06:33:50;15.30;75.70
8103;DHT22;4094;49.948;11.574;2023-10-09T06:36:43;15.30;75.60
8103;DHT22;4094;49.948;11.574;2023-10-09T06:39:23;15.40;75.60
8103;DHT22;4094;49.948;11.574;2023-10-09T06:42:09;15.40;75.60
8103;DHT22;4094;49.948;11.574;2023-10-09T06:45:00;15.40;75.50
8103;DHT22;4094;49.948;11.574;2023-10-09T06:47:32;15.40;75.50
8103;DHT22;4094;49.948;11.574;2023-10-09T06:50:11;15.50;75.60
8103;DHT22;4094;49.948;11.574;2023-10-09T06:53:16;15.50;75.70
8103;DHT22;4094;49.948;11.574;2023-10-09T06:55:55;15.60;75.80
8103;DHT22;4094;49.948;11.574;2023-10-09T06:58:34;15.60;75.90
8103;DHT22;4094;49.948;11.574;2023-10-09T07:01:10;15.70;75.90
8103;DHT22;4094;49.948;11.574;2023-10-09T07:03:53;15.70;75.80
8103;DHT22;4094;49.948;11.574;2023-10-09T07:06:27;15.70;75.70
8103;DHT22;4094;49.948;11.574;2023-10-09T07:09:12;15.80;75.80
8103;DHT22;4094;49.948;11.574;2023-10-09T07:11:51;15.80;75.70
8103;DHT22;4094;49.948;11.574;2023-10-09T07:14:26;15.90;75.80
8103;DHT22;4094;49.948;11.574;2023-10-09T07:17:15;15.90;75.80
8103;DHT22;4094;49.948;11.574;2023-10-09T07:19:51;16.00;75.80
8103;DHT22;4094;49.948;11.574;2023-10-09T07:22:43;16.00;75.80
8103;DHT22;4094;49.948;11.574;2023-10-09T07:25:50;16.00;75.70
8103;DHT22;4094;49.948;11.574;2023-10-09T07:28:27;16.10;75.80
8103;DHT22;4094;49.948;11.574;2023-10-09T07:31:17;16.10;75.90
8103;DHT22;4094;49.948;11.574;2023-10-09T07:33:53;16.20;75.80
8103;DHT22;4094;49.948;11.574;2023-10-09T07:36:35;16.20;75.80
8103;DHT22;4094;49.948;11.574;2023-10-09T07:39:06;16.20;75.70
8103;DHT22;4094;49.948;11.574;2023-10-09T07:41:43;16.30;75.80
8103;DHT22;4094;49.948;11.574;2023-10-09T07:44:31;16.30;75.90
8103;DHT22;4094;49.948;11.574;2023-10-09T07:47:05;16.30;76.00
8103;DHT22;4094;49.948;11.574;2023-10-09T07:49:46;16.30;76.00
8103;DHT22;4094;49.948;11.574;2023-10-09T07:52:22;16.40;76.30
8103;DHT22;4094;49.948;11.574;2023-10-09T07:54:51;16.40;76.30
8103;DHT22;4094;49.948;11.574;2023-10-09T07:57:30;16.40;76.30
8103;DHT22;4094;49.948;11.574;2023-10-09T08:00:09;16.40;76.30
8103;DHT22;4094;49.948;11.574;2023-10-09T08:03:03;16.40;76.50
8103;DHT22;4094;49.948;11.574;2023-10-09T08:05:52;16.40;76.50
8103;DHT22;4094;49.948;11.574;2023-10-09T08:08:35;16.50;76.80
8103;DHT22;4094;49.948;11.574;2023-10-09T08:11:30;16.50;76.90
8103;DHT22;4094;49.948;11.574;2023-10-09T08:14:25;16.50;77.00
8103;DHT22;4094;49.948;11.574;2023-10-09T08:17:15;16.50;77.10
8103;DHT22;4094;49.948;11.574;2023-10-09T08:19:49;16.60;77.30
8103;DHT22;4094;49.948;11.574;2023-10-09T08:22:27;16.60;77.30
8103;DHT22;4094;49.948;11.574;2023-10-09T08:25:20;16.60;77.40
8103;DHT22;4094;49.948;11.574;2023-10-09T08:28:01;16.70;77.50
8103;DHT22;4094;49.948;11.574;2023-10-09T08:30:44;16.70;77.60
8103;DHT22;4094;49.948;11.574;2023-10-09T08:33:20;16.70;77.60
8103;DHT22;4094;49.948;11.574;2023-10-09T08:36:28;16.70;77.70
8103;DHT22;4094;49.948;11.574;2023-10-09T08:39:05;16.80;77.80
8103;DHT22;4094;49.948;11.574;2023-10-09T08:41:44;16.80;77.90
8103;DHT22;4094;49.948;11.574;2023-10-09T08:44:14;16.90;77.90
8103;DHT22;4094;49.948;11.574;2023-10-09T08:46:50;16.90;78.10
8103;DHT22;4094;49.948;11.574;2023-10-09T08:49:23;16.90;78.10
8103;DHT22;4094;49.948;11.574;2023-10-09T08:51:55;17.00;78.00
8103;DHT22;4094;49.948;11.574;2023-10-09T08:54:24;17.00;78.10
8103;DHT22;4094;49.948;11.574;2023-10-09T08:56:56;17.00;78.10
8103;DHT22;4094;49.948;11.574;2023-10-09T08:59:26;17.10;78.00
8103;DHT22;4094;49.948;11.574;2023-10-09T09:01:55;17.10;77.90
8103;DHT22;4094;49.948;11.574;2023-10-09T09:04:38;17.10;77.80
8103;DHT22;4094;49.948;11.574;2023-10-09T09:07:24;17.20;78.00
8103;DHT22;4094;49.948;11.574;2023-10-09T09:09:55;17.20;77.80
8103;DHT22;4094;49.948;11.574;2023-10-09T09:12:25;17.20;77.80
8103;DHT22;4094;49.948;11.574;2023-10-09T09:14:58;17.20;77.80
8103;DHT22;4094;49.948;11.574;2023-10-09T09:17:32;17.20;77.80
8103;DHT22;4094;49.948;11.574;2023-10-09T09:20:19;17.20;77.90
8103;DHT22;4094;49.948;11.574;2023-10-09T09:22:52;17.30;78.00
8103;DHT22;4094;49.948;11.574;2023-10-09T09:25:22;17.30;77.90
8103;DHT22;4094;49.948;11.574;2023-10-09T09:27:53;17.30;78.00
8103;DHT22;4094;49.948;11.574;2023-10-09T09:30:28;17.30;78.00
8103;DHT22;4094;49.948;11.574;2023-10-09T09:33:17;17.30;78.10
8103;DHT22;4094;49.948;11.574;2023-10-09T09:36:00;17.30;78.10
8103;DHT22;4094;49.948;11.574;2023-10-09T09:38:34;17.30;78.00
8103;DHT22;4094;49.948;11.574;2023-10-09T09:41:19;17.40;78.00
8103;DHT22;4094;49.948;11.574;2023-10-09T09:43:53;17.40;78.00
8103;DHT22;4094;49.948;11.574;2023-10-09T09:46:25;17.40;77.80
8103;DHT22;4094;49.948;11.574;2023-10-09T09:49:02;17.40;78.00
8103;DHT22;4094;49.948;11.574;2023-10-09T09:51:33;17.40;78.00
8103;DHT22;4094;49.948;11.574;2023-10-09T09:54:02;17.40;78.10
8103;DHT22;4094;49.948;11.574;2023-10-09T09:56:37;17.40;78.30
8103;DHT22;4094;49.948;11.574;2023-10-09T09:59:08;17.40;78.30
8103;DHT22;4094;49.948;11.574;2023-10-09T10:01:41;17.50;78.40
8103;DHT22;4094;49.948;11.574;2023-10-09T10:04:17;17.50;78.50
8103;DHT22;4094;49.948;11.574;2023-10-09T10:06:51;17.50;78.50
8103;DHT22;4094;49.948;11.574;2023-10-09T10:09:34;17.50;78.40
8103;DHT22;4094;49.948;11.574;2023-10-09T10:12:07;17.50;78.70
8103;DHT22;4094;49.948;11.574;2023-10-09T10:14:54;17.50;78.50
8103;DHT22;4094;49.948;11.574;2023-10-09T10:17:27;17.60;78.90
8103;DHT22;4094;49.948;11.574;2023-10-09T10:20:02;17.60;78.80
8103;DHT22;4094;49.948;11.574;2023-10-09T10:23:16;17.60;78.90
8103;DHT22;4094;49.948;11.574;2023-10-09T10:25:54;17.70;78.90
8103;DHT22;4094;49.948;11.574;2023-10-09T10:28:28;17.70;78.90
8103;DHT22;4094;49.948;11.574;2023-10-09T10:31:04;17.70;78.90
8103;DHT22;4094;49.948;11.574;2023-10-09T10:34:03;17.70;78.80
8103;DHT22;4094;49.948;11.574;2023-10-09T10:36:35;17.80;79.20
8103;DHT22;4094;49.948;11.574;2023-10-09T10:39:06;17.80;78.90
8103;DHT22;4094;49.948;11.574;2023-10-09T10:41:38;17.80;78.80
8103;DHT22;4094;49.948;11.574;2023-10-09T10:44:28;17.80;78.80
8103;DHT22;4094;49.948;11.574;2023-10-09T10:47:06;17.90;78.90
8103;DHT22;4094;49.948;11.574;2023-10-09T10:49:52;18.00;79.00
8103;DHT22;4094;49.948;11.574;2023-10-09T10:52:27;18.00;78.90
8103;DHT22;4094;49.948;11.574;2023-10-09T10:55:14;18.00;78.40
8103;DHT22;4094;49.948;11.574;2023-10-09T10:57:46;18.10;78.60
8103;DHT22;4094;49.948;11.574;2023-10-09T11:00:38;18.10;78.70
8103;DHT22;4094;49.948;11.574;2023-10-09T11:03:39;18.20;78.90
8103;DHT22;4094;49.948;11.574;2023-10-09T11:06:33;18.30;79.00
8103;DHT22;4094;49.948;11.574;2023-10-09T11:09:07;18.30;78.80
8103;DHT22;4094;49.948;11.574;2023-10-09T11:11:50;18.40;78.60
8103;DHT22;4094;49.948;11.574;2023-10-09T11:14:23;18.50;78.70
8103;DHT22;4094;49.948;11.574;2023-10-09T11:16:52;18.60;78.60
8103;DHT22;4094;49.948;11.574;2023-10-09T11:19:26;18.60;78.50
8103;DHT22;4094;49.948;11.574;2023-10-09T11:22:02;18.70;78.40
8103;DHT22;4094;49.948;11.574;2023-10-09T11:24:56;18.70;78.30
8103;DHT22;4094;49.948;11.574;2023-10-09T11:27:40;18.80;78.30
8103;DHT22;4094;49.948;11.574;2023-10-09T11:30:18;18.90;78.30
8103;DHT22;4094;49.948;11.574;2023-10-09T11:33:05;18.90;78.00
8103;DHT22;4094;49.948;11.574;2023-10-09T11:35:33;19.00;77.80
8103;DHT22;4094;49.948;11.574;2023-10-09T11:38:05;19.00;77.60
8103;DHT22;4094;49.948;11.574;2023-10-09T11:40:49;19.10;77.40
8103;DHT22;4094;49.948;11.574;2023-10-09T11:43:48;19.10;77.10
8103;DHT22;4094;49.948;11.574;2023-10-09T11:46:20;19.20;76.80
8103;DHT22;4094;49.948;11.574;2023-10-09T11:49:18;19.20;76.80
8103;DHT22;4094;49.948;11.574;2023-10-09T11:52:12;19.20;76.70
8103;DHT22;4094;49.948;11.574;2023-10-09T11:55:00;19.20;76.20
8103;DHT22;4094;49.948;11.574;2023-10-09T11:57:31;19.20;76.50
8103;DHT22;4094;49.948;11.574;2023-10-09T12:00:03;19.20;76.40
8103;DHT22;4094;49.948;11.574;2023-10-09T12:02:49;19.20;76.30
8103;DHT22;4094;49.948;11.574;2023-10-09T12:05:20;19.20;76.40
8103;DHT22;4094;49.948;11.574;2023-10-09T12:07:56;19.20;76.40
8103;DHT22;4094;49.948;11.574;2023-10-09T12:10:28;19.20;76.40
8103;DHT22;4094;49.948;11.574;2023-10-09T12:12:57;19.20;76.30
8103;DHT22;4094;49.948;11.574;2023-10-09T12:15:29;19.20;76.30
8103;DHT22;4094;49.948;11.574;2023-10-09T12:18:06;19.20;76.20
8103;DHT22;4094;49.948;11.574;2023-10-09T12:20:42;19.30;76.20
8103;DHT22;4094;49.948;11.574;2023-10-09T12:23:18;19.30;76.10
8103;DHT22;4094;49.948;11.574;2023-10-09T12:25:49;19.30;75.70
8103;DHT22;4094;49.948;11.574;2023-10-09T12:28:19;19.40;75.80
8103;DHT22;4094;49.948;11.574;2023-10-09T12:30:49;19.40;75.70
8103;DHT22;4094;49.948;11.574;2023-10-09T12:33:20;19.40;75.80
8103;DHT22;4094;49.948;11.574;2023-10-09T12:35:56;19.40;75.70
8103;DHT22;4094;49.948;11.574;2023-10-09T12:38:30;19.40;76.00
8103;DHT22;4094;49.948;11.574;2023-10-09T12:41:05;19.40;75.90
8103;DHT22;4094;49.948;11.574;2023-10-09T12:43:45;19.50;75.70
8103;DHT22;4094;49.948;11.574;2023-10-09T12:46:14;19.50;75.90
8103;DHT22;4094;49.948;11.574;2023-10-09T12:48:45;19.50;75.60
8103;DHT22;4094;49.948;11.574;2023-10-09T12:51:16;19.50;75.60
8103;DHT22;4094;49.948;11.574;2023-10-09T12:53:46;19.60;75.40
8103;DHT22;4094;49.948;11.574;2023-10-09T12:56:18;19.60;75.50
8103;DHT22;4094;49.948;11.574;2023-10-09T12:58:47;19.70;75.40
8103;DHT22;4094;49.948;11.574;2023-10-09T13:01:21;19.70;75.40
8103;DHT22;4094;49.948;11.574;2023-10-09T13:03:50;19.70;75.40
8103;DHT22;4094;49.948;11.574;2023-10-09T13:06:20;19.80;75.10
8103;DHT22;4094;49.948;11.574;2023-10-09T13:08:52;19.80;75.00
8103;DHT22;4094;49.948;11.574;2023-10-09T13:11:28;19.80;74.80
8103;DHT22;4094;49.948;11.574;2023-10-09T13:13:58;19.80;74.80
8103;DHT22;4094;49.948;11.574;2023-10-09T13:16:39;19.90;74.90
8103;DHT22;4094;49.948;11.574;2023-10-09T13:19:09;19.90;74.60
8103;DHT22;4094;49.948;11.574;2023-10-09T13:21:38;19.90;74.40
8103;DHT22;4094;49.948;11.574;2023-10-09T13:24:08;20.00;74.40
8103;DHT22;4094;49.948;11.574;2023-10-09T13:26:43;20.00;74.20
8103;DHT22;4094;49.948;11.574;2023-10-09T13:29:14;20.00;74.10
8103;DHT22;4094;49.948;11.574;2023-10-09T13:31:50;20.00;74.20
8103;DHT22;4094;49.948;11.574;2023-10-09T13:34:25;20.00;73.90
8103;DHT22;4094;49.948;11.574;2023-10-09T13:36:56;20.00;73.90
8103;DHT22;4094;49.948;11.574;2023-10-09T13:39:27;20.10;73.90
8103;DHT22;4094;49.948;11.574;2023-10-09T13:42:06;20.10;73.90
8103;DHT22;4094;49.948;11.574;2023-10-09T13:44:35;20.10;73.70
8103;DHT22;4094;49.948;11.574;2023-10-09T13:47:09;20.10;73.70
8103;DHT22;4094;49.948;11.574;2023-10-09T13:49:47;20.20;73.80
8103;DHT22;4094;49.948;11.574;2023-10-09T13:52:19;20.20;73.80
8103;DHT22;4094;49.948;11.574;2023-10-09T13:54:50;20.20;73.80
8103;DHT22;4094;49.948;11.574;2023-10-09T13:57:20;20.20;73.60
8103;DHT22;4094;49.948;11.574;2023-10-09T13:59:50;20.20;73.60
8103;DHT22;4094;49.948;11.574;2023-10-09T14:02:19;20.20;73.50
8103;DHT22;4094;49.948;11.574;2023-10-09T14:04:49;20.30;73.20
8103;DHT22;4094;49.948;11.574;2023-10-09T14:07:19;20.20;73.00
8103;DHT22;4094;49.948;11.574;2023-10-09T14:09:48;20.30;73.20
8103;DHT22;4094;49.948;11.574;2023-10-09T14:12:37;20.20;73.10
8103;DHT22;4094;49.948;11.574;2023-10-09T14:15:09;20.20;73.00
8103;DHT22;4094;49.948;11.574;2023-10-09T14:17:47;20.20;73.10
8103;DHT22;4094;49.948;11.574;2023-10-09T14:20:23;20.20;73.20
8103;DHT22;4094;49.948;11.574;2023-10-09T14:22:59;20.20;73.30
8103;DHT22;4094;49.948;11.574;2023-10-09T14:25:35;20.10;73.00
8103;DHT22;4094;49.948;11.574;2023-10-09T14:28:07;20.10;73.10
8103;DHT22;4094;49.948;11.574;2023-10-09T14:30:37;20.10;74.00
8103;DHT22;4094;49.948;11.574;2023-10-09T14:33:11;20.10;73.40
8103;DHT22;4094;49.948;11.574;2023-10-09T14:35:42;20.10;73.40
8103;DHT22;4094;49.948;11.574;2023-10-09T14:38:13;20.10;73.40
8103;DHT22;4094;49.948;11.574;2023-10-09T14:40:44;20.10;73.30
8103;DHT22;4094;49.948;11.574;2023-10-09T14:43:14;20.10;74.10
8103;DHT22;4094;49.948;11.574;2023-10-09T14:45:55;20.10;73.10
8103;DHT22;4094;49.948;11.574;2023-10-09T14:48:25;20.10;73.10
8103;DHT22;4094;49.948;11.574;2023-10-09T14:50:55;20.00;73.30
8103;DHT22;4094;49.948;11.574;2023-10-09T14:53:32;20.00;73.30
8103;DHT22;4094;49.948;11.574;2023-10-09T14:56:02;20.00;73.10
8103;DHT22;4094;49.948;11.574;2023-10-09T14:58:38;20.00;73.00
8103;DHT22;4094;49.948;11.574;2023-10-09T15:01:09;20.00;72.80
8103;DHT22;4094;49.948;11.574;2023-10-09T15:03:41;20.00;72.80
8103;DHT22;4094;49.948;11.574;2023-10-09T15:06:11;20.00;72.80
8103;DHT22;4094;49.948;11.574;2023-10-09T15:08:40;19.90;72.80
8103;DHT22;4094;49.948;11.574;2023-10-09T15:11:10;19.90;72.90
8103;DHT22;4094;49.948;11.574;2023-10-09T15:13:41;20.00;73.70
8103;DHT22;4094;49.948;11.574;2023-10-09T15:16:10;19.90;72.80
8103;DHT22;4094;49.948;11.574;2023-10-09T15:18:39;19.90;73.00
8103;DHT22;4094;49.948;11.574;2023-10-09T15:21:09;19.90;73.10
8103;DHT22;4094;49.948;11.574;2023-10-09T15:23:38;19.90;73.10
8103;DHT22;4094;49.948;11.574;2023-10-09T15:26:08;19.90;73.30
8103;DHT22;4094;49.948;11.574;2023-10-09T15:28:40;19.90;73.30
8103;DHT22;4094;49.948;11.574;2023-10-09T15:31:11;19.90;73.40
8103;DHT22;4094;49.948;11.574;2023-10-09T15:33:43;19.90;73.50
8103;DHT22;4094;49.948;11.574;2023-10-09T15:36:13;19.90;73.50
8103;DHT22;4094;49.948;11.574;2023-10-09T15:38:46;19.80;73.50
8103;DHT22;4094;49.948;11.574;2023-10-09T15:41:15;19.80;73.40
8103;DHT22;4094;49.948;11.574;2023-10-09T15:43:47;19.80;73.40
8103;DHT22;4094;49.948;11.574;2023-10-09T15:46:17;19.80;73.30
8103;DHT22;4094;49.948;11.574;2023-10-09T15:48:50;19.80;74.00
8103;DHT22;4094;49.948;11.574;2023-10-09T15:51:21;19.80;73.10
8103;DHT22;4094;49.948;11.574;2023-10-09T15:53:50;19.80;72.90
8103;DHT22;4094;49.948;11.574;2023-10-09T15:56:20;19.80;72.90
8103;DHT22;4094;49.948;11.574;2023-10-09T15:58:51;19.70;72.80
8103;DHT22;4094;49.948;11.574;2023-10-09T16:01:22;19.70;73.50
8103;DHT22;4094;49.948;11.574;2023-10-09T16:03:51;19.70;72.60
8103;DHT22;4094;49.948;11.574;2023-10-09T16:06:22;19.70;72.60
8103;DHT22;4094;49.948;11.574;2023-10-09T16:08:55;19.70;72.50
8103;DHT22;4094;49.948;11.574;2023-10-09T16:11:24;19.70;72.20
8103;DHT22;4094;49.948;11.574;2023-10-09T16:13:55;19.70;72.10
8103;DHT22;4094;49.948;11.574;2023-10-09T16:16:25;19.70;72.10
8103;DHT22;4094;49.948;11.574;2023-10-09T16:18:57;19.70;72.20
8103;DHT22;4094;49.948;11.574;2023-10-09T16:21:26;19.70;72.10
8103;DHT22;4094;49.948;11.574;2023-10-09T16:23:55;19.70;72.20
8103;DHT22;4094;49.948;11.574;2023-10-09T16:26:27;19.70;72.00
8103;DHT22;4094;49.948;11.574;2023-10-09T16:28:57;19.60;71.90
8103;DHT22;4094;49.948;11.574;2023-10-09T16:31:27;19.60;71.60
8103;DHT22;4094;49.948;11.574;2023-10-09T16:34:07;19.60;71.60
8103;DHT22;4094;49.948;11.574;2023-10-09T16:36:37;19.60;71.70
8103;DHT22;4094;49.948;11.574;2023-10-09T16:39:06;19.60;71.70
8103;DHT22;4094;49.948;11.574;2023-10-09T16:41:46;19.60;71.70
8103;DHT22;4094;49.948;11.574;2023-10-09T16:44:17;19.60;71.30